AFL600 URSS-UDYZ
Flight info
| Callsign | AFL600 |
|---|---|
| Flight time | 0h 56m |
| Altitude | 35000 |
| Route | TABAN N166 OGMOS B143 IDLER M747 BARUS DCT OGEVI T918 TIBLO |
| Aircraft | A321/M-SADE2E3FGHIJ1RWY/LB1U1 |
Departure
| Time | 2026-05-08 17:11 |
|---|---|
| Airport | Sochi International Airport (URSS) |
Arrival
| Time | 2026-05-08 18:07 |
|---|---|
| Airport | Zvartnots International Airport (UDYZ) |
| Time | Latitude | Longitude | Altitude | Speed | Heading |
|---|---|---|---|---|---|
| 2026-05-08 16:33 | 43.44722 | 39.94110 | 67 ft | 0 kts | 335° |
| 2026-05-08 17:01 | 43.44705 | 39.94122 | 64 ft | 4 kts | 335° |
| 2026-05-08 17:02 | 43.44681 | 39.94138 | 72 ft | 4 kts | 335° |
| 2026-05-08 17:02 | 43.44656 | 39.94154 | 61 ft | 3 kts | 335° |
| 2026-05-08 17:02 | 43.44637 | 39.94167 | 72 ft | 4 kts | 348° |
| 2026-05-08 17:02 | 43.44615 | 39.94164 | 66 ft | 4 kts | 44° |
| 2026-05-08 17:03 | 43.44604 | 39.94145 | 68 ft | 0 kts | 65° |
| 2026-05-08 17:05 | 43.44614 | 39.94173 | 67 ft | 8 kts | 65° |
| 2026-05-08 17:05 | 43.44638 | 39.94244 | 68 ft | 8 kts | 65° |
| 2026-05-08 17:05 | 43.44666 | 39.94328 | 69 ft | 11 kts | 65° |
| 2026-05-08 17:05 | 43.44697 | 39.94420 | 69 ft | 10 kts | 64° |
| 2026-05-08 17:06 | 43.44734 | 39.94525 | 70 ft | 16 kts | 65° |
| 2026-05-08 17:06 | 43.44782 | 39.94668 | 66 ft | 16 kts | 65° |
| 2026-05-08 17:06 | 43.44829 | 39.94804 | 70 ft | 15 kts | 65° |
| 2026-05-08 17:06 | 43.44871 | 39.94928 | 69 ft | 13 kts | 64° |
| 2026-05-08 17:07 | 43.44906 | 39.95028 | 85 ft | 12 kts | 65° |
| 2026-05-08 17:07 | 43.44948 | 39.95144 | 85 ft | 13 kts | 63° |
| 2026-05-08 17:07 | 43.44980 | 39.95236 | 90 ft | 9 kts | 65° |
| 2026-05-08 17:07 | 43.44993 | 39.95310 | 91 ft | 6 kts | 104° |
| 2026-05-08 17:08 | 43.44990 | 39.95319 | 88 ft | 0 kts | 116° |
| 2026-05-08 17:09 | 43.44989 | 39.95320 | 89 ft | 1 kts | 123° |
| 2026-05-08 17:09 | 43.44953 | 39.95354 | 92 ft | 8 kts | 152° |
| 2026-05-08 17:09 | 43.44906 | 39.95371 | 90 ft | 6 kts | 208° |
| 2026-05-08 17:09 | 43.44884 | 39.95323 | 88 ft | 3 kts | 245° |
| 2026-05-08 17:10 | 43.44859 | 39.95248 | 88 ft | 22 kts | 245° |
| 2026-05-08 17:10 | 43.44678 | 39.94718 | 65 ft | 96 kts | 245° |
| 2026-05-08 17:10 | 43.44308 | 39.93634 | 54 ft | 151 kts | 245° |
| 2026-05-08 17:10 | 43.43827 | 39.92215 | 418 ft | 164 kts | 246° |
| 2026-05-08 17:11 | 43.43469 | 39.90736 | 1090 ft | 162 kts | 255° |
| 2026-05-08 17:11 | 43.43287 | 39.89732 | 1456 ft | 165 kts | 257° |
| 2026-05-08 17:11 | 43.42924 | 39.87503 | 1768 ft | 193 kts | 258° |
| 2026-05-08 17:11 | 43.42726 | 39.86265 | 1891 ft | 208 kts | 257° |
| 2026-05-08 17:12 | 43.42396 | 39.84206 | 2088 ft | 233 kts | 257° |
| 2026-05-08 17:12 | 43.42025 | 39.81924 | 2511 ft | 254 kts | 257° |
| 2026-05-08 17:12 | 43.41628 | 39.79522 | 3280 ft | 260 kts | 257° |
| 2026-05-08 17:12 | 43.41221 | 39.77082 | 4116 ft | 264 kts | 257° |
| 2026-05-08 17:13 | 43.40801 | 39.74602 | 4934 ft | 268 kts | 257° |
| 2026-05-08 17:13 | 43.40372 | 39.72080 | 5709 ft | 273 kts | 257° |
| 2026-05-08 17:13 | 43.39938 | 39.69518 | 6502 ft | 277 kts | 257° |
| 2026-05-08 17:13 | 43.39445 | 39.66934 | 7240 ft | 282 kts | 248° |
| 2026-05-08 17:14 | 43.38420 | 39.64635 | 7970 ft | 286 kts | 226° |
| 2026-05-08 17:14 | 43.36834 | 39.62988 | 8715 ft | 288 kts | 204° |
| 2026-05-08 17:14 | 43.34912 | 39.62248 | 9471 ft | 289 kts | 184° |
| 2026-05-08 17:14 | 43.32890 | 39.62098 | 10210 ft | 294 kts | 182° |
| 2026-05-08 17:15 | 43.30778 | 39.61949 | 10452 ft | 315 kts | 182° |
| 2026-05-08 17:15 | 43.28539 | 39.61785 | 10641 ft | 336 kts | 182° |
| 2026-05-08 17:15 | 43.26167 | 39.61604 | 11154 ft | 345 kts | 182° |
| 2026-05-08 17:15 | 43.23752 | 39.61414 | 11813 ft | 349 kts | 182° |
| 2026-05-08 17:16 | 43.21310 | 39.61223 | 12483 ft | 354 kts | 182° |
| 2026-05-08 17:16 | 43.18842 | 39.61032 | 13166 ft | 358 kts | 183° |
| 2026-05-08 17:16 | 43.16341 | 39.60838 | 13838 ft | 362 kts | 183° |
| 2026-05-08 17:16 | 43.13815 | 39.60640 | 14444 ft | 366 kts | 183° |
| 2026-05-08 17:17 | 43.11261 | 39.60442 | 15044 ft | 370 kts | 183° |
| 2026-05-08 17:17 | 43.08679 | 39.60241 | 15635 ft | 373 kts | 183° |
| 2026-05-08 17:17 | 43.06089 | 39.59788 | 16228 ft | 377 kts | 189° |
| 2026-05-08 17:17 | 43.03491 | 39.59201 | 16827 ft | 381 kts | 189° |
| 2026-05-08 17:18 | 43.00861 | 39.58612 | 17419 ft | 384 kts | 189° |
| 2026-05-08 17:18 | 42.98214 | 39.58022 | 17994 ft | 388 kts | 189° |
| 2026-05-08 17:18 | 42.95532 | 39.57426 | 18552 ft | 392 kts | 189° |
| 2026-05-08 17:18 | 42.92828 | 39.56822 | 19044 ft | 395 kts | 189° |
| 2026-05-08 17:19 | 42.90104 | 39.56210 | 19541 ft | 398 kts | 189° |
| 2026-05-08 17:19 | 42.87357 | 39.55594 | 20028 ft | 402 kts | 189° |
| 2026-05-08 17:19 | 42.84591 | 39.54973 | 20497 ft | 405 kts | 189° |
| 2026-05-08 17:19 | 42.81801 | 39.54346 | 20985 ft | 408 kts | 189° |
| 2026-05-08 17:20 | 42.78990 | 39.53716 | 21461 ft | 411 kts | 189° |
| 2026-05-08 17:20 | 42.76156 | 39.53081 | 21929 ft | 414 kts | 189° |
| 2026-05-08 17:20 | 42.74047 | 39.52613 | 22282 ft | 417 kts | 189° |
| 2026-05-08 17:20 | 42.71293 | 39.51992 | 22707 ft | 420 kts | 185° |
| 2026-05-08 17:21 | 42.68382 | 39.52187 | 23138 ft | 421 kts | 166° |
| 2026-05-08 17:21 | 42.65636 | 39.53532 | 23560 ft | 421 kts | 149° |
| 2026-05-08 17:21 | 42.63287 | 39.55876 | 23949 ft | 420 kts | 133° |
| 2026-05-08 17:21 | 42.61521 | 39.59000 | 24321 ft | 418 kts | 116° |
| 2026-05-08 17:22 | 42.60441 | 39.62637 | 24703 ft | 416 kts | 104° |
| 2026-05-08 17:22 | 42.59614 | 39.66413 | 25097 ft | 418 kts | 104° |
| 2026-05-08 17:22 | 42.58795 | 39.70195 | 25504 ft | 420 kts | 104° |
| 2026-05-08 17:22 | 42.57969 | 39.74006 | 25899 ft | 422 kts | 104° |
| 2026-05-08 17:23 | 42.57137 | 39.77829 | 26300 ft | 423 kts | 104° |
| 2026-05-08 17:23 | 42.56298 | 39.81661 | 26684 ft | 425 kts | 104° |
| 2026-05-08 17:23 | 42.55462 | 39.85469 | 27064 ft | 427 kts | 104° |
| 2026-05-08 17:23 | 42.54604 | 39.89389 | 27455 ft | 429 kts | 104° |
| 2026-05-08 17:24 | 42.53764 | 39.93221 | 27833 ft | 431 kts | 104° |
| 2026-05-08 17:24 | 42.52894 | 39.97171 | 28221 ft | 433 kts | 104° |
| 2026-05-08 17:24 | 42.52029 | 40.01091 | 28570 ft | 435 kts | 104° |
| 2026-05-08 17:24 | 42.51160 | 40.05026 | 28932 ft | 436 kts | 104° |
| 2026-05-08 17:25 | 42.50296 | 40.08915 | 29271 ft | 438 kts | 104° |
| 2026-05-08 17:25 | 42.49412 | 40.12880 | 29602 ft | 440 kts | 104° |
| 2026-05-08 17:25 | 42.48531 | 40.16860 | 29932 ft | 442 kts | 103° |
| 2026-05-08 17:25 | 42.47692 | 40.20866 | 30265 ft | 443 kts | 103° |
| 2026-05-08 17:26 | 42.46883 | 40.24904 | 30545 ft | 445 kts | 102° |
| 2026-05-08 17:26 | 42.46088 | 40.28966 | 30801 ft | 447 kts | 102° |
| 2026-05-08 17:26 | 42.45294 | 40.33034 | 31159 ft | 447 kts | 102° |
| 2026-05-08 17:26 | 42.44489 | 40.37105 | 31507 ft | 447 kts | 103° |
| 2026-05-08 17:27 | 42.43670 | 40.41169 | 31844 ft | 448 kts | 103° |
| 2026-05-08 17:27 | 42.42841 | 40.45233 | 32169 ft | 448 kts | 103° |
| 2026-05-08 17:27 | 42.42003 | 40.49302 | 32498 ft | 449 kts | 103° |
| 2026-05-08 17:27 | 42.41161 | 40.53375 | 32822 ft | 450 kts | 103° |
| 2026-05-08 17:28 | 42.40317 | 40.57456 | 33143 ft | 450 kts | 103° |
| 2026-05-08 17:28 | 42.39477 | 40.61536 | 33461 ft | 451 kts | 103° |
| 2026-05-08 17:28 | 42.38636 | 40.65614 | 33776 ft | 452 kts | 103° |
| 2026-05-08 17:28 | 42.37788 | 40.69712 | 34086 ft | 452 kts | 103° |
| 2026-05-08 17:29 | 42.36938 | 40.73809 | 34363 ft | 452 kts | 104° |
| 2026-05-08 17:29 | 42.36082 | 40.77909 | 34615 ft | 453 kts | 104° |
| 2026-05-08 17:29 | 42.35227 | 40.82006 | 34876 ft | 453 kts | 104° |
| 2026-05-08 17:29 | 42.34374 | 40.86095 | 35107 ft | 454 kts | 104° |
| 2026-05-08 17:30 | 42.32665 | 40.94284 | 35197 ft | 449 kts | 104° |
| 2026-05-08 17:30 | 42.30970 | 41.02394 | 35192 ft | 448 kts | 104° |
| 2026-05-08 17:31 | 42.29280 | 41.10481 | 35190 ft | 448 kts | 104° |
| 2026-05-08 17:31 | 42.27579 | 41.18566 | 35190 ft | 448 kts | 104° |
| 2026-05-08 17:32 | 42.25864 | 41.26652 | 35184 ft | 448 kts | 104° |
| 2026-05-08 17:32 | 42.24128 | 41.34733 | 35179 ft | 448 kts | 104° |
| 2026-05-08 17:33 | 42.22392 | 41.42799 | 35176 ft | 448 kts | 104° |
| 2026-05-08 17:33 | 42.20661 | 41.50872 | 35176 ft | 448 kts | 104° |
| 2026-05-08 17:34 | 42.18928 | 41.58954 | 35169 ft | 448 kts | 104° |
| 2026-05-08 17:34 | 42.17188 | 41.67028 | 35170 ft | 448 kts | 105° |
| 2026-05-08 17:35 | 42.15436 | 41.75092 | 35165 ft | 448 kts | 105° |
| 2026-05-08 17:35 | 42.13642 | 41.83141 | 35172 ft | 449 kts | 105° |
| 2026-05-08 17:36 | 42.11833 | 41.91128 | 35167 ft | 449 kts | 105° |
| 2026-05-08 17:36 | 42.10007 | 41.99160 | 35162 ft | 449 kts | 105° |
| 2026-05-08 17:37 | 42.08180 | 42.07198 | 35158 ft | 449 kts | 105° |
| 2026-05-08 17:37 | 42.06352 | 42.15246 | 35160 ft | 450 kts | 105° |
| 2026-05-08 17:38 | 42.04519 | 42.23282 | 35162 ft | 450 kts | 105° |
| 2026-05-08 17:38 | 42.02678 | 42.31328 | 35161 ft | 450 kts | 106° |
| 2026-05-08 17:39 | 42.00830 | 42.39376 | 35160 ft | 451 kts | 106° |
| 2026-05-08 17:39 | 41.98963 | 42.47423 | 35164 ft | 451 kts | 106° |
| 2026-05-08 17:40 | 41.97088 | 42.55475 | 35172 ft | 452 kts | 106° |
| 2026-05-08 17:40 | 41.95212 | 42.63527 | 35180 ft | 452 kts | 106° |
| 2026-05-08 17:41 | 41.93341 | 42.71584 | 35185 ft | 451 kts | 106° |
| 2026-05-08 17:41 | 41.91399 | 42.79601 | 35194 ft | 452 kts | 112° |
| 2026-05-08 17:42 | 41.88127 | 42.86774 | 35196 ft | 453 kts | 131° |
| 2026-05-08 17:42 | 41.83587 | 42.92637 | 35195 ft | 453 kts | 137° |
| 2026-05-08 17:43 | 41.78964 | 42.98394 | 35204 ft | 454 kts | 137° |
| 2026-05-08 17:43 | 41.74367 | 43.04115 | 35203 ft | 454 kts | 137° |
| 2026-05-08 17:44 | 41.69733 | 43.09869 | 35205 ft | 455 kts | 137° |
| 2026-05-08 17:44 | 41.65088 | 43.15618 | 35221 ft | 455 kts | 137° |
| 2026-05-08 17:45 | 41.60438 | 43.21361 | 35223 ft | 455 kts | 137° |
| 2026-05-08 17:45 | 41.55790 | 43.27090 | 35232 ft | 455 kts | 137° |
| 2026-05-08 17:46 | 41.51129 | 43.32820 | 35232 ft | 455 kts | 137° |
| 2026-05-08 17:46 | 41.46469 | 43.38537 | 35244 ft | 455 kts | 137° |
| 2026-05-08 17:47 | 41.41809 | 43.44251 | 35117 ft | 456 kts | 137° |
| 2026-05-08 17:47 | 41.39475 | 43.47105 | 34835 ft | 454 kts | 137° |
| 2026-05-08 17:47 | 41.37935 | 43.48988 | 34449 ft | 454 kts | 137° |
| 2026-05-08 17:48 | 41.34822 | 43.52789 | 33603 ft | 453 kts | 137° |
| 2026-05-08 17:48 | 41.32504 | 43.55610 | 33044 ft | 450 kts | 137° |
| 2026-05-08 17:48 | 41.30200 | 43.58414 | 32481 ft | 448 kts | 137° |
| 2026-05-08 17:48 | 41.27910 | 43.61199 | 31924 ft | 445 kts | 137° |
| 2026-05-08 17:49 | 41.25631 | 43.63968 | 31370 ft | 443 kts | 137° |
| 2026-05-08 17:49 | 41.23356 | 43.66729 | 30819 ft | 442 kts | 137° |
| 2026-05-08 17:49 | 41.21090 | 43.69475 | 30266 ft | 440 kts | 137° |
| 2026-05-08 17:49 | 41.18838 | 43.72202 | 29675 ft | 436 kts | 137° |
| 2026-05-08 17:50 | 41.16586 | 43.74866 | 29144 ft | 432 kts | 141° |
| 2026-05-08 17:50 | 41.14131 | 43.77026 | 28642 ft | 428 kts | 152° |
| 2026-05-08 17:50 | 41.11410 | 43.78574 | 28128 ft | 424 kts | 162° |
| 2026-05-08 17:50 | 41.08559 | 43.79445 | 27627 ft | 420 kts | 173° |
| 2026-05-08 17:51 | 41.05665 | 43.79878 | 27131 ft | 416 kts | 173° |
| 2026-05-08 17:51 | 41.02768 | 43.80303 | 26657 ft | 429 kts | 173° |
| 2026-05-08 17:51 | 40.99713 | 43.80755 | 26142 ft | 455 kts | 173° |
| 2026-05-08 17:51 | 40.96515 | 43.81232 | 25620 ft | 467 kts | 173° |
| 2026-05-08 17:52 | 40.93281 | 43.81717 | 25102 ft | 468 kts | 173° |
| 2026-05-08 17:52 | 40.90054 | 43.82202 | 24589 ft | 466 kts | 173° |
| 2026-05-08 17:52 | 40.83628 | 43.83161 | 23469 ft | 463 kts | 173° |
| 2026-05-08 17:53 | 40.80439 | 43.83635 | 22928 ft | 460 kts | 173° |
| 2026-05-08 17:53 | 40.77274 | 43.84102 | 22390 ft | 455 kts | 173° |
| 2026-05-08 17:53 | 40.74139 | 43.84461 | 21844 ft | 450 kts | 180° |
| 2026-05-08 17:53 | 40.71047 | 43.84061 | 21310 ft | 444 kts | 193° |
| 2026-05-08 17:54 | 40.68068 | 43.83057 | 20772 ft | 440 kts | 195° |
| 2026-05-08 17:54 | 40.65120 | 43.82037 | 20215 ft | 435 kts | 195° |
| 2026-05-08 17:54 | 40.62204 | 43.81035 | 19686 ft | 431 kts | 195° |
| 2026-05-08 17:54 | 40.59319 | 43.80047 | 19159 ft | 427 kts | 195° |
| 2026-05-08 17:55 | 40.56452 | 43.79068 | 18631 ft | 423 kts | 195° |
| 2026-05-08 17:55 | 40.53623 | 43.78102 | 18067 ft | 419 kts | 195° |
| 2026-05-08 17:55 | 40.50807 | 43.77140 | 17561 ft | 416 kts | 195° |
| 2026-05-08 17:55 | 40.48017 | 43.76189 | 17057 ft | 413 kts | 195° |
| 2026-05-08 17:56 | 40.45250 | 43.75247 | 16554 ft | 406 kts | 195° |
| 2026-05-08 17:56 | 40.42622 | 43.74356 | 16257 ft | 375 kts | 195° |
| 2026-05-08 17:56 | 40.40195 | 43.73541 | 16068 ft | 345 kts | 194° |
| 2026-05-08 17:56 | 40.37888 | 43.73201 | 15665 ft | 327 kts | 180° |
| 2026-05-08 17:57 | 40.35658 | 43.73517 | 15146 ft | 318 kts | 172° |
| 2026-05-08 17:57 | 40.33448 | 43.73963 | 14770 ft | 322 kts | 172° |
| 2026-05-08 17:57 | 40.31226 | 43.74403 | 14366 ft | 322 kts | 173° |
| 2026-05-08 17:57 | 40.29004 | 43.74837 | 13851 ft | 325 kts | 173° |
| 2026-05-08 17:58 | 40.26792 | 43.75264 | 13561 ft | 319 kts | 173° |
| 2026-05-08 17:58 | 40.24610 | 43.75684 | 13130 ft | 314 kts | 173° |
| 2026-05-08 17:58 | 40.22471 | 43.76093 | 12337 ft | 310 kts | 173° |
| 2026-05-08 17:58 | 40.20347 | 43.76503 | 11766 ft | 299 kts | 173° |
| 2026-05-08 17:59 | 40.18401 | 43.77181 | 11365 ft | 285 kts | 153° |
| 2026-05-08 17:59 | 40.16862 | 43.78711 | 11033 ft | 278 kts | 130° |
| 2026-05-08 17:59 | 40.15891 | 43.80842 | 10826 ft | 277 kts | 108° |
| 2026-05-08 17:59 | 40.15576 | 43.83300 | 10585 ft | 275 kts | 91° |
| 2026-05-08 18:00 | 40.15507 | 43.84985 | 10417 ft | 275 kts | 91° |
| 2026-05-08 18:00 | 40.15268 | 43.90740 | 9577 ft | 271 kts | 92° |
| 2026-05-08 18:00 | 40.15162 | 43.93194 | 9217 ft | 269 kts | 92° |
| 2026-05-08 18:01 | 40.15054 | 43.95629 | 8858 ft | 268 kts | 92° |
| 2026-05-08 18:01 | 40.14946 | 43.98050 | 8502 ft | 266 kts | 92° |
| 2026-05-08 18:01 | 40.14872 | 43.99682 | 8287 ft | 265 kts | 92° |
| 2026-05-08 18:01 | 40.14765 | 44.02071 | 7933 ft | 260 kts | 92° |
| 2026-05-08 18:02 | 40.14666 | 44.04377 | 7593 ft | 255 kts | 91° |
| 2026-05-08 18:02 | 40.14578 | 44.06658 | 7346 ft | 246 kts | 92° |
| 2026-05-08 18:02 | 40.14520 | 44.08864 | 7074 ft | 240 kts | 89° |
| 2026-05-08 18:02 | 40.14527 | 44.10999 | 6772 ft | 228 kts | 89° |
| 2026-05-08 18:03 | 40.14547 | 44.13055 | 6474 ft | 225 kts | 89° |
| 2026-05-08 18:03 | 40.14564 | 44.15093 | 6166 ft | 224 kts | 89° |
| 2026-05-08 18:03 | 40.14579 | 44.17083 | 5874 ft | 211 kts | 88° |
| 2026-05-08 18:03 | 40.14593 | 44.18951 | 5621 ft | 202 kts | 89° |
| 2026-05-08 18:04 | 40.14606 | 44.20759 | 5355 ft | 197 kts | 88° |
| 2026-05-08 18:04 | 40.14619 | 44.22535 | 5092 ft | 194 kts | 88° |
| 2026-05-08 18:04 | 40.14630 | 44.24230 | 4837 ft | 179 kts | 88° |
| 2026-05-08 18:04 | 40.14641 | 44.25847 | 4596 ft | 173 kts | 88° |
| 2026-05-08 18:05 | 40.14651 | 44.27366 | 4350 ft | 159 kts | 88° |
| 2026-05-08 18:05 | 40.14660 | 44.28766 | 4127 ft | 153 kts | 87° |
| 2026-05-08 18:05 | 40.14670 | 44.30166 | 3903 ft | 152 kts | 87° |
| 2026-05-08 18:05 | 40.14676 | 44.31522 | 3696 ft | 151 kts | 86° |
| 2026-05-08 18:06 | 40.14682 | 44.32889 | 3501 ft | 150 kts | 87° |
| 2026-05-08 18:06 | 40.14692 | 44.34250 | 3310 ft | 150 kts | 87° |
| 2026-05-08 18:06 | 40.14699 | 44.35599 | 3119 ft | 148 kts | 87° |
| 2026-05-08 18:06 | 40.14710 | 44.36931 | 2929 ft | 146 kts | 86° |
| 2026-05-08 18:07 | 40.14720 | 44.38252 | 2856 ft | 136 kts | 87° |
| 2026-05-08 18:07 | 40.14726 | 44.39325 | 2838 ft | 92 kts | 90° |
| 2026-05-08 18:07 | 40.14728 | 44.39823 | 2840 ft | 26 kts | 89° |
| 2026-05-08 18:07 | 40.14752 | 44.40006 | 2842 ft | 15 kts | 53° |
| 2026-05-08 18:08 | 40.14840 | 44.40038 | 2840 ft | 13 kts | 359° |
| 2026-05-08 18:08 | 40.14914 | 44.40036 | 2840 ft | 9 kts | 359° |
| 2026-05-08 18:08 | 40.14945 | 44.40032 | 2840 ft | 1 kts | 345° |
| 2026-05-08 18:08 | 40.14948 | 44.40031 | 2840 ft | 1 kts | 341° |
| 2026-05-08 18:09 | 40.14965 | 44.40019 | 2841 ft | 2 kts | 335° |
| 2026-05-08 18:09 | 40.15002 | 44.40012 | 2841 ft | 7 kts | 360° |
| 2026-05-08 18:09 | 40.15048 | 44.40013 | 2841 ft | 6 kts | 2° |
| 2026-05-08 18:09 | 40.15077 | 44.40013 | 2841 ft | 2 kts | 0° |
| 2026-05-08 18:10 | 40.15088 | 44.40013 | 2841 ft | 1 kts | 0° |
| 2026-05-08 18:10 | 40.15090 | 44.40013 | 2841 ft | 0 kts | 0° |